Time;durP1;ratioP1;P1;durP2;ratioP2;P2;SDS_P1;SDS_P2;PMS_P1;PMS_P2;Temp;Humidity;BMP_temperature;BMP_pressure;BME280_temperature;BME280_humidity;BME280_pressure;Samples;Min_cycle;Max_cycle;Signal;HPM_P1;HPM_P2
2022/01/26 00:00:57;;;;;;;28.73;16.83;;;;;;;-3.05;100.00;97116.59;5111929;28;24435;-75
2022/01/26 00:06:14;;;;;;;34.57;26.23;;;;;;;-2.99;100.00;97111.59;5111453;28;24409;-75
2022/01/26 00:08:41;;;;;;;43.13;31.80;;;;;;;-3.09;100.00;97107.25;5111462;28;24429;-76
2022/01/26 00:11:08;;;;;;;34.50;25.23;;;;;;;-3.26;100.00;97112.13;5111748;28;24417;-75
2022/01/26 00:13:34;;;;;;;26.17;17.57;;;;;;;-3.36;100.00;97115.38;5111550;28;24476;-75
2022/01/26 00:16:03;;;;;;;23.08;14.90;;;;;;;-3.26;100.00;97110.44;5111240;28;25016;-75
2022/01/26 00:18:33;;;;;;;21.65;14.82;;;;;;;-3.24;100.00;97110.44;5111615;28;24978;-75
2022/01/26 00:21:06;;;;;;;21.58;15.80;;;;;;;-3.14;100.00;97107.19;5111626;28;24421;-76
2022/01/26 00:23:52;;;;;;;19.50;15.38;;;;;;;-3.01;100.00;97105.66;5111599;28;24787;-76
2022/01/26 00:26:28;;;;;;;20.27;15.30;;;;;;;-2.95;100.00;97101.50;5111426;28;24524;-75
2022/01/26 00:29:08;;;;;;;30.30;22.50;;;;;;;-2.93;100.00;97089.72;5111227;28;24483;-75
2022/01/26 00:39:46;;;;;;;23.83;18.48;;;;;;;-3.10;100.00;97093.72;5131109;27;24526;-76
2022/01/26 00:42:12;;;;;;;26.10;18.02;;;;;;;-3.04;100.00;97090.41;5131849;27;24853;-75
2022/01/26 00:44:44;;;;;;;23.23;19.05;;;;;;;-2.99;100.00;97098.94;5131709;27;24420;-75
2022/01/26 00:47:10;;;;;;;25.63;20.95;;;;;;;-3.01;100.00;97101.44;5131751;27;24522;-75
2022/01/26 00:49:37;;;;;;;29.98;24.77;;;;;;;-2.98;100.00;97093.88;5131638;27;24602;-75
2022/01/26 00:52:06;;;;;;;36.42;25.00;;;;;;;-3.01;100.00;97091.28;5131391;27;24429;-75
2022/01/26 00:54:34;;;;;;;26.13;23.10;;;;;;;-3.17;100.00;97097.03;5131375;27;24424;-75
2022/01/26 00:57:02;;;;;;;29.23;22.98;;;;;;;-3.34;100.00;97096.78;5131812;27;24432;-75
2022/01/26 00:59:29;;;;;;;31.48;21.83;;;;;;;-3.39;100.00;97102.66;5124735;28;24453;-76
2022/01/26 01:01:56;;;;;;;28.42;20.05;;;;;;;-3.48;100.00;97109.31;5121310;27;25024;-75
2022/01/26 01:04:23;;;;;;;23.60;17.42;;;;;;;-3.40;100.00;97109.41;5132095;27;24440;-75
2022/01/26 01:06:55;;;;;;;21.40;17.47;;;;;;;-3.31;100.00;97103.59;5127997;28;24462;-75
2022/01/26 01:09:23;;;;;;;24.48;17.95;;;;;;;-3.26;100.00;97100.31;5113144;28;24517;-76
2022/01/26 01:11:55;;;;;;;23.92;19.13;;;;;;;-3.35;100.00;97109.47;5115336;28;24432;-76
2022/01/26 01:14:23;;;;;;;31.80;17.58;;;;;;;-3.76;100.00;97117.34;5115126;28;24417;-75
2022/01/26 01:16:51;;;;;;;32.13;17.47;;;;;;;-3.72;100.00;97114.88;5114880;28;24556;-76
2022/01/26 01:19:30;;;;;;;24.23;18.95;;;;;;;-3.74;100.00;97111.47;5114949;28;24973;-75
2022/01/26 01:22:20;;;;;;;31.55;20.67;;;;;;;-3.58;100.00;97116.75;5135724;27;24505;-75
2022/01/26 01:28:13;;;;;;;32.40;23.30;;;;;;;-3.48;100.00;97119.44;5051427;28;24470;-76
2022/01/26 01:30:43;;;;;;;31.55;18.92;;;;;;;-3.58;100.00;97122.66;5125860;27;24506;-75
2022/01/26 01:33:15;;;;;;;23.85;12.38;;;;;;;-3.66;100.00;97119.19;5143718;27;24433;-75
2022/01/26 01:35:43;;;;;;;18.10;13.10;;;;;;;-3.68;100.00;97119.13;5135157;27;24421;-75
2022/01/26 01:38:16;;;;;;;30.70;14.63;;;;;;;-3.62;100.00;97115.84;5155616;27;24481;-76
2022/01/26 01:40:45;;;;;;;15.27;13.68;;;;;;;-3.36;100.00;97116.22;5155886;27;24425;-75
2022/01/26 01:43:14;;;;;;;24.40;16.58;;;;;;;-3.28;100.00;97118.84;5156035;27;24429;-76
2022/01/26 01:45:46;;;;;;;18.88;13.98;;;;;;;-3.27;100.00;97112.94;5155835;27;24424;-76
2022/01/26 01:48:17;;;;;;;17.77;13.33;;;;;;;-3.07;100.00;97120.81;5155473;27;24921;-75
2022/01/26 01:50:45;;;;;;;17.75;14.75;;;;;;;-3.09;100.00;97117.38;5155361;27;24477;-75
2022/01/26 01:53:15;;;;;;;17.50;13.23;;;;;;;-3.08;100.00;97111.47;5155508;27;24424;-75
2022/01/26 01:55:46;;;;;;;19.80;14.63;;;;;;;-2.90;100.00;97110.84;5155781;27;24477;-76
2022/01/26 01:58:13;;;;;;;16.15;14.40;;;;;;;-3.01;100.00;97115.78;5155248;27;24448;-76
2022/01/26 02:00:41;;;;;;;17.75;14.00;;;;;;;-3.34;100.00;97123.81;5155609;27;24427;-75
2022/01/26 02:03:08;;;;;;;23.20;12.43;;;;;;;-3.55;100.00;97122.72;5155599;27;24424;-74
2022/01/26 02:05:34;;;;;;;14.60;12.15;;;;;;;-3.75;100.00;97124.94;5155570;27;24485;-75
2022/01/26 02:08:01;;;;;;;15.73;12.82;;;;;;;-3.76;100.00;97118.19;5155344;27;24435;-75
2022/01/26 02:10:29;;;;;;;22.05;13.48;;;;;;;-3.70;100.00;97125.03;5155308;27;24425;-75
2022/01/26 02:12:57;;;;;;;15.65;12.93;;;;;;;-3.54;100.00;97115.97;5155232;27;24462;-75
2022/01/26 02:15:29;;;;;;;24.02;14.13;;;;;;;-3.62;100.00;97118.38;5155055;27;24516;-75
2022/01/26 02:51:18;;;;;;;15.15;11.70;;;;;;;-3.42;100.00;97108.53;5154287;27;24999;-75
2022/01/26 02:54:16;;;;;;;15.63;11.90;;;;;;;-3.12;100.00;97109.75;5154640;27;24428;-75
2022/01/26 02:56:54;;;;;;;18.42;11.70;;;;;;;-3.21;100.00;97108.81;5154437;27;24523;-76
2022/01/26 02:59:49;;;;;;;18.23;12.27;;;;;;;-3.16;100.00;97111.38;5154326;27;24455;-75
2022/01/26 03:02:24;;;;;;;13.80;12.40;;;;;;;-3.14;100.00;97114.81;5154376;27;24420;-76
2022/01/26 03:04:53;;;;;;;18.70;12.88;;;;;;;-3.10;100.00;97115.69;5154158;27;24937;-75
2022/01/26 03:07:25;;;;;;;14.57;12.70;;;;;;;-3.05;100.00;97114.06;5154005;27;24423;-76
2022/01/26 03:10:00;;;;;;;16.48;12.95;;;;;;;-3.06;100.00;97117.44;5154027;27;24431;-76
2022/01/26 03:12:34;;;;;;;20.88;13.57;;;;;;;-3.03;100.00;97110.72;5154291;27;24420;-76
2022/01/26 03:15:10;;;;;;;15.57;13.38;;;;;;;-3.11;100.00;97111.47;5153871;27;24503;-75
2022/01/26 03:17:53;;;;;;;17.17;13.48;;;;;;;-3.21;100.00;97106.25;5153786;27;24424;-75
2022/01/26 03:20:20;;;;;;;23.00;13.40;;;;;;;-3.14;100.00;97102.13;5153756;27;24444;-75
2022/01/26 03:28:21;;;;;;;26.02;16.02;;;;;;;-3.34;100.00;97091.72;5153452;27;24423;-74
2022/01/26 03:33:53;;;;;;;21.00;14.05;;;;;;;-3.66;100.00;97099.78;5151180;27;24546;-75
2022/01/26 03:36:21;;;;;;;34.00;12.75;;;;;;;-3.20;100.00;97095.28;5153282;27;24428;-75
2022/01/26 03:38:55;;;;;;;21.58;12.52;;;;;;;-3.34;100.00;97104.41;5153218;27;24501;-74
2022/01/26 03:41:33;;;;;;;15.82;12.90;;;;;;;-3.30;100.00;97100.22;5153439;27;24806;-74
2022/01/26 03:44:00;;;;;;;21.77;13.73;;;;;;;-3.39;100.00;97102.66;5153521;27;24413;-75
2022/01/26 03:46:27;;;;;;;23.02;12.75;;;;;;;-3.27;100.00;97101.13;5153078;27;24799;-75
2022/01/26 03:48:53;;;;;;;21.40;12.68;;;;;;;-3.32;100.00;97110.34;5153101;27;24436;-74
2022/01/26 03:51:20;;;;;;;16.05;12.93;;;;;;;-3.44;100.00;97112.72;5153113;27;24427;-76
2022/01/26 03:53:46;;;;;;;16.40;14.32;;;;;;;-3.58;100.00;97109.16;5153458;27;24420;-76
2022/01/26 03:56:13;;;;;;;16.63;13.98;;;;;;;-3.31;100.00;97116.25;5153015;27;24428;-75
2022/01/26 03:58:40;;;;;;;21.27;13.70;;;;;;;-3.31;100.00;97121.31;5153153;27;24424;-76
2022/01/26 04:01:07;;;;;;;18.00;13.82;;;;;;;-3.28;100.00;97121.38;5152989;27;24536;-76
2022/01/26 04:03:33;;;;;;;14.32;12.82;;;;;;;-3.30;100.00;97121.38;5153224;27;24424;-75
2022/01/26 04:06:00;;;;;;;15.77;13.85;;;;;;;-3.23;100.00;97119.75;5152653;27;24419;-74
2022/01/26 04:08:29;;;;;;;19.05;13.85;;;;;;;-3.31;100.00;97122.19;5152781;27;24433;-74
2022/01/26 04:11:07;;;;;;;16.35;12.70;;;;;;;-3.40;100.00;97122.06;5153145;27;24436;-76
2022/01/26 04:13:34;;;;;;;18.17;12.95;;;;;;;-3.53;100.00;97125.25;5153121;27;24416;-76
2022/01/26 04:16:01;;;;;;;15.35;13.75;;;;;;;-3.44;100.00;97123.72;5152806;27;24423;-76
2022/01/26 04:18:33;;;;;;;14.43;13.10;;;;;;;-3.21;100.00;97124.00;5152921;27;24423;-75
2022/01/26 04:21:05;;;;;;;13.05;11.65;;;;;;;-3.27;100.00;97128.97;5153019;27;24481;-75
2022/01/26 04:23:38;;;;;;;20.30;12.35;;;;;;;-3.87;100.00;97123.91;5152817;27;24493;-75
2022/01/26 04:26:05;;;;;;;15.63;13.88;;;;;;;-3.50;100.00;97120.25;5152351;27;24450;-75
2022/01/26 04:28:38;;;;;;;17.73;14.18;;;;;;;-3.46;100.00;97115.22;5152513;27;25038;-76
2022/01/26 04:31:06;;;;;;;22.23;14.15;;;;;;;-3.43;100.00;97119.50;5152372;27;24428;-74
2022/01/26 04:33:34;;;;;;;17.05;13.77;;;;;;;-3.44;100.00;97112.72;5152805;27;24416;-76
2022/01/26 04:36:02;;;;;;;20.60;14.15;;;;;;;-3.42;100.00;97109.38;5152358;27;24452;-75
2022/01/26 04:38:34;;;;;;;18.27;13.80;;;;;;;-3.57;100.00;97111.69;5152514;27;24489;-75
2022/01/26 04:41:13;;;;;;;16.92;14.68;;;;;;;-3.51;100.00;97119.38;5152385;27;24412;-75
2022/01/26 04:43:42;;;;;;;24.08;14.32;;;;;;;-3.25;100.00;97113.81;5152364;27;24424;-75
2022/01/26 04:46:10;;;;;;;32.67;14.70;;;;;;;-3.34;100.00;97112.00;5152210;27;24421;-76
2022/01/26 04:48:36;;;;;;;18.33;14.48;;;;;;;-3.54;100.00;97108.38;5152544;27;24424;-75
2022/01/26 04:51:03;;;;;;;22.27;13.70;;;;;;;-3.44;100.00;97105.97;5152385;27;24919;-75
2022/01/26 04:53:30;;;;;;;18.35;14.02;;;;;;;-3.53;100.00;97103.31;5152151;27;24420;-76
2022/01/26 04:55:58;;;;;;;22.80;13.40;;;;;;;-3.59;100.00;97103.25;5151623;27;22233;-75
2022/01/26 04:58:24;;;;;;;32.25;14.52;;;;;;;-3.56;100.00;97099.88;5152053;27;24948;-75
2022/01/26 05:00:51;;;;;;;16.90;13.25;;;;;;;-3.50;100.00;97099.97;5152053;27;24449;-75
2022/01/26 05:03:19;;;;;;;18.38;14.50;;;;;;;-3.46;100.00;97105.09;5152164;27;24823;-75
2022/01/26 05:05:45;;;;;;;28.13;15.37;;;;;;;-3.04;100.00;97103.94;5152477;27;24478;-76
2022/01/26 05:08:11;;;;;;;27.90;15.45;;;;;;;-3.04;100.00;97108.13;5151904;27;24435;-76
2022/01/26 05:10:42;;;;;;;27.42;16.60;;;;;;;-2.98;100.00;97105.69;5151924;27;24454;-76
2022/01/26 05:13:10;;;;;;;25.08;15.23;;;;;;;-3.23;100.00;97102.84;5152059;27;24427;-76
2022/01/26 05:15:37;;;;;;;33.38;16.92;;;;;;;-3.34;100.00;97095.94;5152116;27;24444;-75
2022/01/26 05:18:05;;;;;;;17.40;15.65;;;;;;;-3.28;100.00;97099.41;5151995;27;24504;-75
2022/01/26 05:20:33;;;;;;;38.00;15.32;;;;;;;-3.44;100.00;97107.66;5152075;27;24492;-75
2022/01/26 05:23:00;;;;;;;25.45;15.35;;;;;;;-3.52;100.00;97106.69;5151949;27;24490;-76
2022/01/26 05:25:26;;;;;;;26.30;14.48;;;;;;;-3.55;100.00;97112.59;5151711;27;24953;-76
2022/01/26 05:27:53;;;;;;;35.92;15.43;;;;;;;-3.65;100.00;97118.34;5151937;27;25006;-76
2022/01/26 05:30:19;;;;;;;26.13;15.25;;;;;;;-3.67;100.00;97125.06;5145452;27;24452;-76
2022/01/26 05:32:46;;;;;;;32.20;15.95;;;;;;;-3.67;100.00;97120.88;5131221;28;24498;-76
2022/01/26 05:35:12;;;;;;;46.70;16.42;;;;;;;-3.60;100.00;97115.88;5131050;28;24420;-76
2022/01/26 05:37:40;;;;;;;31.30;16.48;;;;;;;-3.63;100.00;97108.22;5125836;27;24441;-77
2022/01/26 05:40:07;;;;;;;67.50;16.63;;;;;;;-3.82;100.00;97112.16;5129845;27;25012;-75
2022/01/26 05:42:36;;;;;;;42.67;15.68;;;;;;;-3.85;100.00;97107.09;5131238;28;24778;-77
2022/01/26 05:45:05;;;;;;;21.90;15.40;;;;;;;-3.69;100.00;97106.47;5130923;28;24976;-77
2022/01/26 05:47:33;;;;;;;45.67;15.57;;;;;;;-3.71;100.00;97103.06;5151776;27;24836;-75
2022/01/26 05:50:00;;;;;;;54.13;15.10;;;;;;;-3.83;100.00;97105.41;5151423;27;24487;-75
2022/01/26 05:52:27;;;;;;;37.80;16.08;;;;;;;-3.84;100.00;97112.16;5151635;27;24520;-75
2022/01/26 05:54:55;;;;;;;26.30;17.45;;;;;;;-3.74;100.00;97111.47;5151364;27;24956;-75
2022/01/26 05:57:21;;;;;;;25.92;16.40;;;;;;;-3.61;100.00;97112.50;5154897;27;24424;-74
2022/01/26 05:59:48;;;;;;;65.18;16.88;;;;;;;-3.80;100.00;97118.97;5155363;27;24448;-75
2022/01/26 06:02:14;;;;;;;36.50;15.57;;;;;;;-3.73;100.00;97117.38;5155411;27;24416;-74
2022/01/26 06:04:41;;;;;;;23.77;14.38;;;;;;;-3.74;100.00;97114.00;5155267;27;24498;-76
2022/01/26 06:07:07;;;;;;;33.60;14.60;;;;;;;-3.77;100.00;97105.50;5155186;27;24420;-75
2022/01/26 06:09:34;;;;;;;49.63;15.07;;;;;;;-4.02;100.00;97110.19;5155194;27;24425;-77
2022/01/26 06:12:01;;;;;;;46.22;16.85;;;;;;;-4.14;100.00;97115.06;5155116;27;24413;-77
2022/01/26 06:14:28;;;;;;;37.25;16.50;;;;;;;-4.09;100.00;97110.94;5154964;27;24417;-75
2022/01/26 06:16:54;;;;;;;34.93;16.23;;;;;;;-3.91;100.00;97116.28;5137910;27;24436;-75
2022/01/26 06:19:21;;;;;;;25.70;16.25;;;;;;;-3.78;100.00;97106.31;5133830;27;24951;-75
2022/01/26 06:21:47;;;;;;;39.95;16.45;;;;;;;-3.76;100.00;97102.16;5134242;27;24425;-75
2022/01/26 06:24:14;;;;;;;46.90;17.25;;;;;;;-3.99;100.00;97101.81;5132646;27;24436;-75
2022/01/26 06:26:42;;;;;;;32.20;15.10;;;;;;;-3.98;100.00;97098.44;5132663;27;24433;-76
2022/01/26 06:29:09;;;;;;;22.92;17.02;;;;;;;-3.81;100.00;97089.44;5134015;27;24433;-76
2022/01/26 06:31:40;;;;;;;33.73;16.73;;;;;;;-3.76;100.00;97094.56;5133607;27;24416;-76
2022/01/26 06:34:08;;;;;;;21.83;15.13;;;;;;;-3.56;100.00;97089.75;5114866;27;24417;-76
2022/01/26 06:36:35;;;;;;;20.50;14.85;;;;;;;-3.54;100.00;97094.03;5134369;27;24447;-76
2022/01/26 06:39:02;;;;;;;34.10;16.15;;;;;;;-3.83;100.00;97096.13;5134416;27;24821;-76
2022/01/26 06:41:29;;;;;;;70.97;16.63;;;;;;;-4.01;100.00;97088.28;5134116;27;24445;-76
2022/01/26 06:44:02;;;;;;;36.95;15.55;;;;;;;-4.02;100.00;97089.94;5139900;27;24433;-76
2022/01/26 06:46:39;;;;;;;34.70;15.48;;;;;;;-3.98;100.00;97099.28;5112976;28;24461;-76
2022/01/26 06:52:01;;;;;;;19.73;16.13;;;;;;;-3.95;100.00;97094.28;5076241;28;24541;-77
2022/01/26 06:54:28;;;;;;;27.02;18.67;;;;;;;-3.86;100.00;97091.03;5114905;27;24484;-76
2022/01/26 06:56:54;;;;;;;18.48;16.30;;;;;;;-3.71;100.00;97083.69;5113245;28;24460;-76
2022/01/26 06:59:22;;;;;;;30.48;16.38;;;;;;;-3.57;100.00;97093.13;5115814;27;24434;-75
2022/01/26 07:01:50;;;;;;;26.73;15.55;;;;;;;-3.73;100.00;97085.31;5135254;27;24427;-76
2022/01/26 07:04:16;;;;;;;16.42;13.93;;;;;;;-3.58;100.00;97092.28;5134036;27;24474;-76
2022/01/26 07:06:43;;;;;;;57.13;16.88;;;;;;;-3.83;100.00;97095.28;5133173;27;24421;-76
2022/01/26 07:09:10;;;;;;;31.50;14.98;;;;;;;-3.73;100.00;97085.31;5132963;27;25234;-76
2022/01/26 07:11:37;;;;;;;22.23;14.00;;;;;;;-3.61;100.00;97098.97;5133557;27;24424;-76
2022/01/26 07:14:06;;;;;;;61.13;15.45;;;;;;;-3.84;100.00;97099.50;5133121;27;24437;-76
2022/01/26 07:22:02;;;;;;;31.45;13.25;;;;;;;-3.84;100.00;97106.25;5112915;28;24420;-78
2022/01/26 07:24:28;;;;;;;15.45;13.18;;;;;;;-3.72;100.00;97114.00;5112321;28;24432;-77
2022/01/26 07:26:55;;;;;;;24.55;14.95;;;;;;;-3.40;100.00;97129.66;5112407;28;24417;-77
2022/01/26 07:29:24;;;;;;;30.25;15.63;;;;;;;-3.42;100.00;97123.72;5112254;28;24443;-77
2022/01/26 07:31:51;;;;;;;24.52;14.18;;;;;;;-3.34;100.00;97123.81;5112782;28;24453;-78
2022/01/26 07:34:21;;;;;;;54.37;13.47;;;;;;;-3.75;100.00;97129.16;5112713;28;24518;-76
2022/01/26 07:36:48;;;;;;;80.38;14.73;;;;;;;-3.83;100.00;97130.72;5112787;28;24520;-76
2022/01/26 07:39:18;;;;;;;76.45;16.85;;;;;;;-3.98;100.00;97131.34;5121468;27;24989;-77
2022/01/26 07:41:45;;;;;;;58.35;15.68;;;;;;;-3.93;100.00;97138.19;5133197;27;24444;-76
2022/01/26 07:44:12;;;;;;;39.72;17.27;;;;;;;-3.88;100.00;97145.84;5132696;27;24441;-76
2022/01/26 07:46:38;;;;;;;124.38;16.83;;;;;;;-4.21;100.00;97136.88;5132468;27;24995;-75
2022/01/26 07:49:05;;;;;;;116.43;16.07;;;;;;;-4.40;100.00;97139.94;5150144;27;24872;-77
2022/01/26 07:51:32;;;;;;;146.90;17.15;;;;;;;-4.58;100.00;97147.19;5153418;27;24515;-76
2022/01/26 07:53:59;;;;;;;45.22;14.05;;;;;;;-4.47;100.00;97146.56;5146652;27;24841;-76
2022/01/26 07:56:26;;;;;;;31.48;15.10;;;;;;;-4.19;100.00;97152.97;5111879;28;24481;-75
2022/01/26 07:58:53;;;;;;;37.00;14.45;;;;;;;-3.98;100.00;97156.66;5120778;27;24550;-75
2022/01/26 08:01:20;;;;;;;36.28;15.30;;;;;;;-3.54;100.00;97149.72;5131802;27;24444;-76
2022/01/26 08:03:46;;;;;;;51.80;14.45;;;;;;;-3.45;100.00;97157.47;5132645;27;24524;-76
2022/01/26 08:06:16;;;;;;;30.75;14.77;;;;;;;-3.52;100.00;97158.22;5132559;27;24417;-76
2022/01/26 08:08:44;;;;;;;42.67;15.60;;;;;;;-3.51;100.00;97167.50;5131768;27;24790;-77
2022/01/26 08:11:11;;;;;;;25.13;15.85;;;;;;;-3.48;100.00;97159.13;5113213;28;24948;-76
2022/01/26 08:13:37;;;;;;;28.08;15.00;;;;;;;-3.47;100.00;97151.53;5125729;27;24794;-78
2022/01/26 08:16:05;;;;;;;18.23;16.42;;;;;;;-3.41;100.00;97160.91;5132362;27;24440;-76
2022/01/26 08:18:31;;;;;;;27.75;16.30;;;;;;;-3.33;100.00;97163.53;5132248;27;24420;-76
2022/01/26 08:21:03;;;;;;;29.98;16.48;;;;;;;-3.34;100.00;97159.28;5132766;27;24456;-77
2022/01/26 08:23:30;;;;;;;34.60;17.30;;;;;;;-3.56;100.00;97163.19;5130023;27;24425;-76
2022/01/26 08:25:58;;;;;;;21.17;17.05;;;;;;;-3.50;100.00;97160.75;5111551;28;24428;-75
2022/01/26 08:28:29;;;;;;;21.83;16.65;;;;;;;-3.26;100.00;97156.03;5111784;28;24414;-72
2022/01/26 08:30:55;;;;;;;27.63;17.50;;;;;;;-3.02;100.00;97149.56;5126985;27;24783;-75
2022/01/26 08:33:22;;;;;;;18.45;16.42;;;;;;;-3.05;100.00;97164.75;5132751;27;24425;-75
2022/01/26 08:35:48;;;;;;;21.45;16.13;;;;;;;-2.98;100.00;97164.84;5132087;27;24417;-76
2022/01/26 08:38:15;;;;;;;25.30;17.70;;;;;;;-2.97;100.00;97160.59;5132503;27;24424;-77
2022/01/26 08:40:43;;;;;;;24.63;17.42;;;;;;;-2.74;100.00;97182.03;5112767;27;24488;-78
2022/01/26 08:43:11;;;;;;;25.75;18.63;;;;;;;-2.83;100.00;97176.84;5121463;27;24440;-76
2022/01/26 08:45:38;;;;;;;19.77;16.90;;;;;;;-2.82;100.00;97170.94;5125074;27;24992;-76
2022/01/26 08:48:05;;;;;;;19.65;17.27;;;;;;;-2.83;100.00;97165.84;5129005;27;24494;-76
2022/01/26 08:50:31;;;;;;;20.60;18.05;;;;;;;-2.81;100.00;97159.97;5131772;27;24425;-75
2022/01/26 08:52:58;;;;;;;25.65;18.90;;;;;;;-2.95;100.00;97182.63;5131741;27;24436;-75
2022/01/26 08:55:24;;;;;;;24.25;18.92;;;;;;;-2.97;100.00;97188.50;5113517;28;24517;-74
2022/01/26 08:57:51;;;;;;;26.70;21.13;;;;;;;-2.74;100.00;97188.81;5111242;28;24826;-75
2022/01/26 09:00:19;;;;;;;29.58;23.13;;;;;;;-2.59;100.00;97183.06;5121520;28;24453;-76
2022/01/26 09:02:46;;;;;;;27.80;22.42;;;;;;;-2.57;100.00;97164.47;5131953;28;24416;-76
2022/01/26 09:05:13;;;;;;;32.80;22.92;;;;;;;-2.49;100.00;97177.22;5131965;28;24494;-76
2022/01/26 09:07:44;;;;;;;30.23;23.93;;;;;;;-2.44;100.00;97190.84;5124304;28;25028;-76
2022/01/26 09:10:10;;;;;;;30.90;22.77;;;;;;;-2.42;100.00;97189.16;5110788;28;24916;-74
2022/01/26 09:12:41;;;;;;;34.10;24.55;;;;;;;-2.37;100.00;97192.59;5113550;28;24458;-74
2022/01/26 09:15:09;;;;;;;31.85;25.65;;;;;;;-2.39;100.00;97196.78;5122023;28;24536;-74
2022/01/26 09:17:38;;;;;;;36.63;26.55;;;;;;;-2.74;100.00;97204.88;5126294;28;24429;-75
2022/01/26 09:20:06;;;;;;;40.20;26.88;;;;;;;-2.74;100.00;97220.06;5131298;27;24431;-75
2022/01/26 09:22:33;;;;;;;33.42;26.23;;;;;;;-2.60;100.00;97220.22;5131733;28;24432;-75
2022/01/26 09:24:59;;;;;;;33.35;25.42;;;;;;;-2.56;100.00;97210.97;5114599;28;24441;-75
2022/01/26 09:27:26;;;;;;;31.95;23.45;;;;;;;-2.38;100.00;97195.09;5110463;28;24418;-75
2022/01/26 09:29:53;;;;;;;32.43;23.87;;;;;;;-2.63;100.00;97178.75;5111664;28;24506;-75
2022/01/26 09:32:19;;;;;;;30.27;24.30;;;;;;;-2.56;100.00;97172.91;5114993;28;24528;-74
2022/01/26 09:34:47;;;;;;;32.42;24.58;;;;;;;-2.67;100.00;97180.41;5115378;28;24413;-74
2022/01/26 09:37:16;;;;;;;37.10;26.08;;;;;;;-2.82;100.00;97187.84;5114533;28;24421;-76
2022/01/26 09:39:45;;;;;;;37.20;25.27;;;;;;;-2.78;100.00;97190.44;5124268;27;24447;-75
2022/01/26 09:42:11;;;;;;;29.67;24.20;;;;;;;-2.64;100.00;97190.59;5135057;27;24511;-77
2022/01/26 09:44:38;;;;;;;33.17;24.23;;;;;;;-2.49;100.00;97182.31;5129629;27;25041;-76
2022/01/26 09:47:06;;;;;;;31.27;24.13;;;;;;;-2.35;100.00;97172.31;5114288;27;24421;-77
2022/01/26 09:49:34;;;;;;;32.38;25.05;;;;;;;-2.22;100.00;97166.53;5114494;28;24508;-77
2022/01/26 09:52:06;;;;;;;31.88;24.15;;;;;;;-2.15;100.00;97169.94;5114163;28;24439;-76
2022/01/26 09:54:33;;;;;;;35.67;25.63;;;;;;;-2.13;100.00;97158.97;5113029;28;24475;-75
2022/01/26 09:57:03;;;;;;;39.75;27.77;;;;;;;-2.06;100.00;97147.19;5134142;27;24521;-76
2022/01/26 09:59:30;;;;;;;42.58;27.40;;;;;;;-2.31;100.00;97149.50;5127988;27;24442;-76
2022/01/26 10:01:57;;;;;;;36.60;27.27;;;;;;;-2.26;100.00;97149.56;5113720;28;24452;-76
2022/01/26 10:04:28;;;;;;;45.53;28.65;;;;;;;-2.09;100.00;97152.25;5113743;28;24422;-76
2022/01/26 10:07:14;;;;;;;46.60;30.40;;;;;;;-2.45;100.00;97154.47;5113725;28;24474;-76
2022/01/26 10:09:59;;;;;;;40.03;28.60;;;;;;;-2.32;100.00;97155.44;5113455;28;24523;-76
2022/01/26 10:15:31;;;;;;;41.47;28.50;;;;;;;-2.19;100.00;97141.16;5133681;27;24412;-76
2022/01/26 10:18:04;;;;;;;47.05;29.25;;;;;;;-2.45;100.00;97141.78;5133876;27;24517;-76
2022/01/26 10:20:43;;;;;;;46.35;29.42;;;;;;;-2.43;100.00;97157.00;5133905;27;24461;-76
2022/01/26 10:23:16;;;;;;;37.17;28.47;;;;;;;-2.35;100.00;97141.84;5134105;27;24433;-74
2022/01/26 10:25:45;;;;;;;45.07;30.70;;;;;;;-2.42;100.00;97129.94;5115355;28;24429;-77
2022/01/26 10:28:13;;;;;;;36.85;27.30;;;;;;;-2.42;100.00;97140.09;5114430;28;24429;-77
2022/01/26 10:30:45;;;;;;;43.80;30.23;;;;;;;-2.40;100.00;97130.81;5114054;28;24812;-77
2022/01/26 10:33:12;;;;;;;33.78;27.33;;;;;;;-2.34;100.00;97124.09;5115076;28;24432;-77
2022/01/26 10:35:39;;;;;;;36.90;28.15;;;;;;;-2.29;100.00;97122.47;5115822;28;24970;-77
2022/01/26 10:38:06;;;;;;;48.70;33.95;;;;;;;-2.35;100.00;97113.94;5115806;28;24433;-77
2022/01/26 10:40:35;;;;;;;32.30;26.35;;;;;;;-2.13;100.00;97117.53;5115056;28;24484;-77
2022/01/26 10:43:06;;;;;;;32.60;26.40;;;;;;;-2.33;100.00;97108.06;5120943;27;24440;-77
2022/01/26 10:45:56;;;;;;;31.63;24.70;;;;;;;-2.27;100.00;97110.63;5123391;27;24414;-78
2022/01/26 10:48:30;;;;;;;31.25;25.80;;;;;;;-2.19;100.00;97120.84;5115590;28;24421;-78
2022/01/26 10:53:43;;;;;;;32.75;25.02;;;;;;;-2.54;100.00;97136.59;5079537;28;24433;-76
2022/01/26 10:56:11;;;;;;;33.60;25.38;;;;;;;-2.54;100.00;97135.75;5113490;28;24495;-77
2022/01/26 10:58:38;;;;;;;29.48;24.08;;;;;;;-2.54;100.00;97141.66;5112858;28;24436;-76
2022/01/26 11:01:05;;;;;;;30.85;24.83;;;;;;;-2.54;100.00;97145.91;5112826;28;24885;-77
2022/01/26 11:03:32;;;;;;;35.92;27.35;;;;;;;-2.76;100.00;97148.19;5113439;28;24818;-76
2022/01/26 11:05:58;;;;;;;33.63;26.02;;;;;;;-2.69;100.00;97151.66;5113255;28;24428;-76
2022/01/26 11:08:26;;;;;;;33.00;27.02;;;;;;;-2.65;100.00;97147.47;5112699;28;24460;-78
2022/01/26 11:10:53;;;;;;;33.60;27.90;;;;;;;-2.68;100.00;97154.19;5112966;28;24437;-76
2022/01/26 11:13:29;;;;;;;32.22;26.13;;;;;;;-2.30;100.00;97158.84;5112558;28;24441;-77
2022/01/26 11:16:07;;;;;;;34.42;27.38;;;;;;;-2.11;100.00;97175.09;5128011;27;24425;-76
2022/01/26 11:18:44;;;;;;;37.35;28.63;;;;;;;-2.10;100.00;97165.78;5133480;27;24459;-76
2022/01/26 11:21:15;;;;;;;36.50;27.05;;;;;;;-1.78;100.00;97164.38;5133394;27;24436;-78
2022/01/26 11:23:42;;;;;;;41.60;27.25;;;;;;;-1.68;100.00;97164.44;5125722;27;24461;-77
2022/01/26 11:26:22;;;;;;;30.55;27.05;;;;;;;-1.41;100.00;97166.31;5112171;28;24438;-76
2022/01/26 11:28:50;;;;;;;36.47;27.90;;;;;;;-1.23;100.00;97174.88;5112640;28;24414;-77
2022/01/26 11:31:19;;;;;;;32.97;27.90;;;;;;;-1.42;100.00;97159.53;5112141;28;24430;-76
2022/01/26 11:33:48;;;;;;;35.97;27.65;;;;;;;-1.12;100.00;97157.16;5112237;28;24486;-76
2022/01/26 11:36:17;;;;;;;35.38;28.02;;;;;;;-1.05;100.00;97153.81;5112186;28;24440;-78
2022/01/26 11:47:06;;;;;;;37.28;28.48;;;;;;;-1.36;100.00;97147.72;5132142;27;24453;-76
2022/01/26 11:49:36;;;;;;;40.13;30.13;;;;;;;-1.47;100.00;97146.81;5132326;27;24429;-76
2022/01/26 11:52:04;;;;;;;41.67;28.57;;;;;;;-1.43;100.00;97150.22;5132682;27;24477;-76
2022/01/26 11:54:42;;;;;;;34.35;27.83;;;;;;;-1.37;100.00;97155.31;5115223;27;24859;-75
2022/01/26 11:57:13;;;;;;;36.88;29.80;;;;;;;-0.84;100.00;97137.78;5111911;27;24416;-78
2022/01/26 11:59:47;;;;;;;40.80;30.23;;;;;;;-1.24;100.00;97132.53;5111929;28;24449;-77
2022/01/26 12:02:29;;;;;;;38.95;29.52;;;;;;;-1.16;100.00;97126.63;5115233;28;24440;-79
2022/01/26 12:05:00;;;;;;;32.85;27.65;;;;;;;-1.09;100.00;97128.38;5113634;28;24478;-77
2022/01/26 12:07:27;;;;;;;46.22;29.10;;;;;;;-1.01;100.00;97140.25;5123773;27;24437;-76
2022/01/26 12:09:54;;;;;;;39.85;29.50;;;;;;;-0.94;100.00;97135.22;5152835;27;24785;-76
2022/01/26 12:12:23;;;;;;;40.40;30.17;;;;;;;-0.83;100.00;97131.00;5143227;27;24429;-77
2022/01/26 12:15:02;;;;;;;40.38;29.58;;;;;;;-0.87;100.00;97125.06;5132673;27;24790;-77
2022/01/26 12:17:33;;;;;;;38.75;29.65;;;;;;;-0.55;100.00;97111.59;5132335;27;24456;-78
2022/01/26 12:31:58;;;;;;;39.75;28.90;;;;;;;-0.25;100.00;97110.81;5131858;27;25003;-78
2022/01/26 12:34:32;;;;;;;35.50;28.10;;;;;;;-0.29;100.00;97124.38;5130932;27;24963;-77
2022/01/26 12:37:09;;;;;;;38.00;29.05;;;;;;;-0.43;100.00;97124.34;5132692;27;24444;-78
2022/01/26 12:42:42;;;;;;;31.50;25.15;;;;;;;-0.71;100.00;97117.47;5127237;27;24424;-78
2022/01/26 12:45:11;;;;;;;35.08;26.88;;;;;;;-0.39;100.00;97115.88;5110913;28;24972;-78
2022/01/26 12:47:39;;;;;;;34.88;26.05;;;;;;;-0.34;100.00;97124.34;5127303;27;24482;-77
2022/01/26 12:50:06;;;;;;;36.47;28.55;;;;;;;-0.59;100.00;97127.72;5132750;27;24429;-78
2022/01/26 12:52:33;;;;;;;34.83;28.08;;;;;;;-0.57;100.00;97118.38;5127081;27;24434;-79